Harbor Acres, New York
Current Conditions -  °F | °C
As of 6:51 PM on Friday 19 Dec 2014 (Local Time) from KLGA Reporting Station
Broken Clouds Broken Clouds  
Wind Chill: 23°   Ceiling: 3500
Heat Index: 33°   Visibility: 10mi
Dew Point: 21°   Wind: 16mph
Humidity: 61%   Direction: 300°WNW
Pressure: 30.15"   Gusts: 25mph
Location:  40.8387°N, 73.6912°W
Report Text: KLGA 192351Z 30014G22KT 10SM BKN035 01/M06 A3015 RMK AO2 SLP208 T00061061 10033 20006 53027
Loading
Personal Weather Stations






























Interactive Weather Map New forecast layout! Learn more

10-Day Weather Forecast

Advertisements
Track Severe Weather on mobile